sensor_id;sensor_type;location;lat;lon;timestamp;pressure;altitude;pressure_sealevel;temperature;humidity
41467;BME280;27205;53.690;19.948;2022-10-15T00:04:22;99785.16;;;10.07;80.04
41467;BME280;27205;53.690;19.948;2022-10-15T00:09:25;99783.42;;;10.14;80.21
41467;BME280;27205;53.690;19.948;2022-10-15T00:14:29;99785.85;;;10.24;80.35
41467;BME280;27205;53.690;19.948;2022-10-15T00:19:32;99780.67;;;10.34;80.49
41467;BME280;27205;53.690;19.948;2022-10-15T00:24:36;99778.96;;;10.49;80.82
41467;BME280;27205;53.690;19.948;2022-10-15T00:29:39;99774.63;;;10.64;80.94
41467;BME280;27205;53.690;19.948;2022-10-15T00:34:43;99773.10;;;10.73;81.06
41467;BME280;27205;53.690;19.948;2022-10-15T00:39:46;99771.43;;;10.84;81.20
41467;BME280;27205;53.690;19.948;2022-10-15T00:50:06;99756.14;;;10.98;81.09
41467;BME280;27205;53.690;19.948;2022-10-15T00:55:25;99749.40;;;11.04;81.25
41467;BME280;27205;53.690;19.948;2022-10-15T01:00:31;99750.10;;;11.06;81.11
41467;BME280;27205;53.690;19.948;2022-10-15T01:05:34;99745.41;;;11.04;81.44
41467;BME280;27205;53.690;19.948;2022-10-15T01:10:53;99742.29;;;11.04;81.21
41467;BME280;27205;53.690;19.948;2022-10-15T01:16:10;99736.17;;;11.02;81.35
41467;BME280;27205;53.690;19.948;2022-10-15T01:21:51;99734.81;;;11.02;81.56
41467;BME280;27205;53.690;19.948;2022-10-15T01:42:59;99710.67;;;10.85;81.82
41467;BME280;27205;53.690;19.948;2022-10-15T01:48:04;99706.80;;;10.78;81.70
41467;BME280;27205;53.690;19.948;2022-10-15T01:53:10;99705.37;;;10.78;81.60
41467;BME280;27205;53.690;19.948;2022-10-15T01:58:16;99699.65;;;10.78;81.71
41467;BME280;27205;53.690;19.948;2022-10-15T02:03:19;99690.17;;;10.80;81.62
41467;BME280;27205;53.690;19.948;2022-10-15T02:08:39;99681.79;;;10.75;82.14
41467;BME280;27205;53.690;19.948;2022-10-15T02:29:17;99672.39;;;10.59;82.29
41467;BME280;27205;53.690;19.948;2022-10-15T02:34:25;99670.53;;;10.55;82.31
41467;BME280;27205;53.690;19.948;2022-10-15T02:39:30;99665.73;;;10.50;82.43
41467;BME280;27205;53.690;19.948;2022-10-15T02:44:33;99660.30;;;10.46;82.59
41467;BME280;27205;53.690;19.948;2022-10-15T02:49:36;99656.54;;;10.35;82.62
41467;BME280;27205;53.690;19.948;2022-10-15T02:54:40;99651.61;;;10.26;82.86
41467;BME280;27205;53.690;19.948;2022-10-15T02:59:43;99646.69;;;10.19;82.67
41467;BME280;27205;53.690;19.948;2022-10-15T03:04:46;99645.95;;;10.11;82.75
41467;BME280;27205;53.690;19.948;2022-10-15T03:09:49;99651.46;;;10.07;82.83
41467;BME280;27205;53.690;19.948;2022-10-15T03:14:53;99645.90;;;10.06;83.33
41467;BME280;27205;53.690;19.948;2022-10-15T03:19:56;99639.52;;;10.05;83.26
41467;BME280;27205;53.690;19.948;2022-10-15T03:24:59;99637.16;;;9.97;83.33
41467;BME280;27205;53.690;19.948;2022-10-15T03:30:02;99636.71;;;9.95;83.45
41467;BME280;27205;53.690;19.948;2022-10-15T03:35:06;99631.13;;;9.98;83.47
41467;BME280;27205;53.690;19.948;2022-10-15T03:40:10;99633.21;;;10.01;83.50
41467;BME280;27205;53.690;19.948;2022-10-15T03:45:19;99641.48;;;10.03;83.81
41467;BME280;27205;53.690;19.948;2022-10-15T03:50:22;99645.76;;;10.09;83.40
41467;BME280;27205;53.690;19.948;2022-10-15T03:55:26;99640.23;;;10.11;84.02
41467;BME280;27205;53.690;19.948;2022-10-15T04:00:29;99636.92;;;10.14;84.01
41467;BME280;27205;53.690;19.948;2022-10-15T04:05:32;99640.11;;;10.18;84.04
41467;BME280;27205;53.690;19.948;2022-10-15T04:10:36;99636.13;;;10.24;83.94
41467;BME280;27205;53.690;19.948;2022-10-15T04:15:39;99632.10;;;10.29;84.11
41467;BME280;27205;53.690;19.948;2022-10-15T04:20:42;99631.79;;;10.35;84.29
41467;BME280;27205;53.690;19.948;2022-10-15T04:25:45;99632.71;;;10.39;84.53
41467;BME280;27205;53.690;19.948;2022-10-15T04:30:49;99631.91;;;10.48;84.40
41467;BME280;27205;53.690;19.948;2022-10-15T04:36:06;99633.37;;;10.55;84.38
41467;BME280;27205;53.690;19.948;2022-10-15T04:41:11;99630.25;;;10.63;84.51
41467;BME280;27205;53.690;19.948;2022-10-15T04:46:15;99626.64;;;10.67;84.48
41467;BME280;27205;53.690;19.948;2022-10-15T04:51:19;99621.17;;;10.71;84.74
41467;BME280;27205;53.690;19.948;2022-10-15T04:56:23;99619.70;;;10.76;84.57
41467;BME280;27205;53.690;19.948;2022-10-15T05:01:26;99623.40;;;10.79;84.68
41467;BME280;27205;53.690;19.948;2022-10-15T05:06:31;99627.13;;;10.84;84.52
41467;BME280;27205;53.690;19.948;2022-10-15T05:11:36;99632.68;;;10.92;84.72
41467;BME280;27205;53.690;19.948;2022-10-15T05:16:42;99634.23;;;10.94;84.63
41467;BME280;27205;53.690;19.948;2022-10-15T05:21:45;99633.16;;;11.00;85.04
41467;BME280;27205;53.690;19.948;2022-10-15T05:26:53;99630.45;;;11.02;84.82
41467;BME280;27205;53.690;19.948;2022-10-15T05:31:57;99621.13;;;11.00;84.74
41467;BME280;27205;53.690;19.948;2022-10-15T05:37:00;99615.53;;;11.00;85.13
41467;BME280;27205;53.690;19.948;2022-10-15T05:42:03;99611.59;;;11.05;85.06
41467;BME280;27205;53.690;19.948;2022-10-15T05:47:06;99608.58;;;11.12;84.95
41467;BME280;27205;53.690;19.948;2022-10-15T05:52:13;99605.36;;;11.23;85.00
41467;BME280;27205;53.690;19.948;2022-10-15T05:57:17;99602.92;;;11.36;85.11
41467;BME280;27205;53.690;19.948;2022-10-15T06:02:20;99601.86;;;11.54;85.34
41467;BME280;27205;53.690;19.948;2022-10-15T06:07:24;99605.30;;;11.78;84.84
41467;BME280;27205;53.690;19.948;2022-10-15T06:12:29;99605.61;;;11.94;84.74
41467;BME280;27205;53.690;19.948;2022-10-15T06:17:33;99604.31;;;12.05;85.13
41467;BME280;27205;53.690;19.948;2022-10-15T06:22:36;99603.41;;;12.21;85.23
41467;BME280;27205;53.690;19.948;2022-10-15T06:27:44;99595.45;;;12.29;85.10
41467;BME280;27205;53.690;19.948;2022-10-15T06:32:49;99596.52;;;12.38;85.15
41467;BME280;27205;53.690;19.948;2022-10-15T06:37:52;99589.40;;;12.45;84.87
41467;BME280;27205;53.690;19.948;2022-10-15T06:43:05;99585.05;;;12.41;84.65
41467;BME280;27205;53.690;19.948;2022-10-15T06:48:10;99586.71;;;12.39;84.63
41467;BME280;27205;53.690;19.948;2022-10-15T06:53:13;99589.75;;;12.38;84.82
41467;BME280;27205;53.690;19.948;2022-10-15T06:58:18;99590.08;;;12.40;84.80
41467;BME280;27205;53.690;19.948;2022-10-15T07:03:21;99600.70;;;12.43;84.83
41467;BME280;27205;53.690;19.948;2022-10-15T07:08:25;99606.99;;;12.53;84.73
41467;BME280;27205;53.690;19.948;2022-10-15T07:13:29;99612.15;;;12.63;84.65
41467;BME280;27205;53.690;19.948;2022-10-15T07:18:33;99613.66;;;12.69;84.65
41467;BME280;27205;53.690;19.948;2022-10-15T07:23:38;99613.06;;;12.79;84.99
41467;BME280;27205;53.690;19.948;2022-10-15T07:28:42;99612.09;;;12.88;84.90
41467;BME280;27205;53.690;19.948;2022-10-15T07:33:45;99612.89;;;13.02;84.90
41467;BME280;27205;53.690;19.948;2022-10-15T07:38:48;99612.36;;;13.14;84.87
41467;BME280;27205;53.690;19.948;2022-10-15T07:43:51;99617.27;;;13.18;84.86
41467;BME280;27205;53.690;19.948;2022-10-15T07:48:58;99618.24;;;13.24;85.14
41467;BME280;27205;53.690;19.948;2022-10-15T07:54:02;99617.55;;;13.37;85.04
41467;BME280;27205;53.690;19.948;2022-10-15T07:59:07;99618.33;;;13.54;85.11
41467;BME280;27205;53.690;19.948;2022-10-15T08:04:10;99615.04;;;13.65;85.05
41467;BME280;27205;53.690;19.948;2022-10-15T08:09:14;99615.77;;;13.83;84.89
41467;BME280;27205;53.690;19.948;2022-10-15T08:14:17;99616.91;;;14.05;84.81
41467;BME280;27205;53.690;19.948;2022-10-15T08:19:20;99621.21;;;14.34;84.82
41467;BME280;27205;53.690;19.948;2022-10-15T08:24:24;99624.00;;;14.61;84.56
41467;BME280;27205;53.690;19.948;2022-10-15T08:29:27;99626.70;;;14.82;84.59
41467;BME280;27205;53.690;19.948;2022-10-15T08:34:30;99628.63;;;15.03;84.66
41467;BME280;27205;53.690;19.948;2022-10-15T08:39:34;99625.78;;;15.14;84.09
41467;BME280;27205;53.690;19.948;2022-10-15T08:54:49;99625.64;;;15.38;83.69
41467;BME280;27205;53.690;19.948;2022-10-15T09:00:03;99627.09;;;15.57;83.51
41467;BME280;27205;53.690;19.948;2022-10-15T09:05:21;99629.23;;;15.82;83.41
41467;BME280;27205;53.690;19.948;2022-10-15T09:10:40;99631.83;;;16.15;83.33
41467;BME280;27205;53.690;19.948;2022-10-15T09:15:49;99637.23;;;16.55;83.00
41467;BME280;27205;53.690;19.948;2022-10-15T09:20:54;99637.73;;;16.84;82.52
41467;BME280;27205;53.690;19.948;2022-10-15T09:31:17;99646.39;;;17.20;81.65
41467;BME280;27205;53.690;19.948;2022-10-15T09:46:53;99625.89;;;17.97;79.91
41467;BME280;27205;53.690;19.948;2022-10-15T09:57:19;99626.14;;;18.19;79.43
41467;BME280;27205;53.690;19.948;2022-10-15T10:02:25;99621.77;;;18.19;78.87
41467;BME280;27205;53.690;19.948;2022-10-15T10:07:35;99619.95;;;18.24;78.43
41467;BME280;27205;53.690;19.948;2022-10-15T10:12:42;99621.04;;;18.29;78.26
41467;BME280;27205;53.690;19.948;2022-10-15T10:17:51;99622.21;;;18.24;78.16
41467;BME280;27205;53.690;19.948;2022-10-15T10:23:18;99628.86;;;18.12;77.79
41467;BME280;27205;53.690;19.948;2022-10-15T10:28:29;99622.34;;;18.00;77.48
41467;BME280;27205;53.690;19.948;2022-10-15T10:33:46;99618.69;;;18.01;77.24
41467;BME280;27205;53.690;19.948;2022-10-15T10:44:35;99609.75;;;18.24;76.63
41467;BME280;27205;53.690;19.948;2022-10-15T10:49:49;99599.35;;;18.44;76.10
41467;BME280;27205;53.690;19.948;2022-10-15T10:55:00;99597.40;;;18.67;76.06
41467;BME280;27205;53.690;19.948;2022-10-15T11:00:04;99598.00;;;18.79;75.26
41467;BME280;27205;53.690;19.948;2022-10-15T11:05:10;99598.05;;;18.91;74.94
41467;BME280;27205;53.690;19.948;2022-10-15T11:10:21;99597.87;;;18.92;74.59
41467;BME280;27205;53.690;19.948;2022-10-15T11:59:13;99583.39;;;19.98;71.75
41467;BME280;27205;53.690;19.948;2022-10-15T12:09:38;99592.52;;;19.61;71.31
41467;BME280;27205;53.690;19.948;2022-10-15T12:20:12;99593.50;;;19.44;71.03
41467;BME280;27205;53.690;19.948;2022-10-15T12:30:36;99584.79;;;19.65;70.70
41467;BME280;27205;53.690;19.948;2022-10-15T12:35:39;99582.52;;;19.74;70.61
41467;BME280;27205;53.690;19.948;2022-10-15T12:40:43;99584.64;;;19.85;70.37
41467;BME280;27205;53.690;19.948;2022-10-15T12:56:45;99582.80;;;19.88;69.24
41467;BME280;27205;53.690;19.948;2022-10-15T13:01:50;99579.66;;;19.75;68.99
41467;BME280;27205;53.690;19.948;2022-10-15T13:07:01;99577.92;;;19.67;69.06
41467;BME280;27205;53.690;19.948;2022-10-15T13:12:21;99576.98;;;19.52;68.93
41467;BME280;27205;53.690;19.948;2022-10-15T13:17:25;99574.55;;;19.34;68.81
41467;BME280;27205;53.690;19.948;2022-10-15T13:22:31;99579.05;;;19.14;68.73
41467;BME280;27205;53.690;19.948;2022-10-15T13:27:36;99578.89;;;18.92;68.83
41467;BME280;27205;53.690;19.948;2022-10-15T13:32:45;99573.98;;;18.77;68.99
41467;BME280;27205;53.690;19.948;2022-10-15T13:37:49;99570.17;;;18.86;69.10
41467;BME280;27205;53.690;19.948;2022-10-15T13:48:10;99577.28;;;19.22;69.35
41467;BME280;27205;53.690;19.948;2022-10-15T13:58:53;99573.98;;;18.99;69.45
41467;BME280;27205;53.690;19.948;2022-10-15T14:03:58;99573.66;;;18.76;69.59
41467;BME280;27205;53.690;19.948;2022-10-15T14:09:19;99574.50;;;18.50;69.83
41467;BME280;27205;53.690;19.948;2022-10-15T14:19:32;99576.30;;;18.13;69.91
41467;BME280;27205;53.690;19.948;2022-10-15T14:24:38;99578.95;;;18.05;70.12
41467;BME280;27205;53.690;19.948;2022-10-15T14:29:44;99572.60;;;17.96;70.32
41467;BME280;27205;53.690;19.948;2022-10-15T14:34:49;99575.93;;;17.86;70.43
41467;BME280;27205;53.690;19.948;2022-10-15T14:50:18;99564.34;;;17.57;70.83
41467;BME280;27205;53.690;19.948;2022-10-15T15:00:38;99564.39;;;17.34;71.23
41467;BME280;27205;53.690;19.948;2022-10-15T15:05:47;99568.02;;;17.23;71.41
41467;BME280;27205;53.690;19.948;2022-10-15T15:10:54;99570.86;;;17.14;71.48
41467;BME280;27205;53.690;19.948;2022-10-15T15:16:01;99578.75;;;17.05;71.63
41467;BME280;27205;53.690;19.948;2022-10-15T15:21:06;99581.23;;;16.95;71.69
41467;BME280;27205;53.690;19.948;2022-10-15T15:26:12;99582.88;;;16.88;71.75
41467;BME280;27205;53.690;19.948;2022-10-15T15:31:16;99584.91;;;16.82;71.86
41467;BME280;27205;53.690;19.948;2022-10-15T15:36:20;99584.53;;;16.79;71.89
41467;BME280;27205;53.690;19.948;2022-10-15T15:41:25;99589.96;;;16.71;72.06
41467;BME280;27205;53.690;19.948;2022-10-15T15:46:29;99593.11;;;16.65;72.29
41467;BME280;27205;53.690;19.948;2022-10-15T15:51:32;99592.83;;;16.56;72.53
41467;BME280;27205;53.690;19.948;2022-10-15T15:56:35;99585.02;;;16.50;72.59
41467;BME280;27205;53.690;19.948;2022-10-15T16:01:39;99579.83;;;16.45;72.77
41467;BME280;27205;53.690;19.948;2022-10-15T16:06:42;99585.81;;;16.38;72.94
41467;BME280;27205;53.690;19.948;2022-10-15T16:11:46;99587.62;;;16.31;73.09
41467;BME280;27205;53.690;19.948;2022-10-15T16:16:49;99592.40;;;16.25;73.15
41467;BME280;27205;53.690;19.948;2022-10-15T16:21:52;99597.77;;;16.23;73.59
41467;BME280;27205;53.690;19.948;2022-10-15T16:26:55;99603.95;;;16.21;73.64
41467;BME280;27205;53.690;19.948;2022-10-15T16:31:59;99604.98;;;16.18;73.75
41467;BME280;27205;53.690;19.948;2022-10-15T16:37:03;99608.66;;;16.17;73.96
41467;BME280;27205;53.690;19.948;2022-10-15T16:42:06;99609.33;;;16.16;74.09
41467;BME280;27205;53.690;19.948;2022-10-15T16:47:10;99613.88;;;16.12;74.26
41467;BME280;27205;53.690;19.948;2022-10-15T16:52:13;99617.36;;;16.10;74.30
41467;BME280;27205;53.690;19.948;2022-10-15T16:57:17;99620.20;;;16.08;74.46
41467;BME280;27205;53.690;19.948;2022-10-15T17:02:20;99621.75;;;16.03;74.54
41467;BME280;27205;53.690;19.948;2022-10-15T17:07:23;99622.58;;;15.98;74.57
41467;BME280;27205;53.690;19.948;2022-10-15T17:12:27;99632.36;;;15.93;74.74
41467;BME280;27205;53.690;19.948;2022-10-15T17:17:30;99633.65;;;15.89;74.78
41467;BME280;27205;53.690;19.948;2022-10-15T17:22:34;99636.20;;;15.82;75.18
41467;BME280;27205;53.690;19.948;2022-10-15T17:27:37;99643.85;;;15.81;75.32
41467;BME280;27205;53.690;19.948;2022-10-15T17:32:40;99642.73;;;15.80;75.53
41467;BME280;27205;53.690;19.948;2022-10-15T17:37:44;99649.05;;;15.78;75.90
41467;BME280;27205;53.690;19.948;2022-10-15T17:42:48;99651.92;;;15.78;76.23
41467;BME280;27205;53.690;19.948;2022-10-15T17:47:51;99660.90;;;15.79;76.56
41467;BME280;27205;53.690;19.948;2022-10-15T17:52:55;99667.88;;;15.79;76.73
41467;BME280;27205;53.690;19.948;2022-10-15T17:58:01;99673.17;;;15.79;77.10
41467;BME280;27205;53.690;19.948;2022-10-15T18:03:04;99674.09;;;15.76;77.51
41467;BME280;27205;53.690;19.948;2022-10-15T18:08:07;99673.02;;;15.73;77.86
41467;BME280;27205;53.690;19.948;2022-10-15T18:13:12;99672.25;;;15.69;78.00
41467;BME280;27205;53.690;19.948;2022-10-15T18:18:16;99669.73;;;15.68;78.39
41467;BME280;27205;53.690;19.948;2022-10-15T18:23:20;99675.97;;;15.65;78.67
41467;BME280;27205;53.690;19.948;2022-10-15T18:28:27;99681.02;;;15.61;78.87
41467;BME280;27205;53.690;19.948;2022-10-15T18:33:30;99688.70;;;15.58;79.34
41467;BME280;27205;53.690;19.948;2022-10-15T18:38:34;99690.13;;;15.57;79.38
41467;BME280;27205;53.690;19.948;2022-10-15T18:43:38;99688.50;;;15.56;79.61
41467;BME280;27205;53.690;19.948;2022-10-15T18:48:41;99691.59;;;15.55;79.68
41467;BME280;27205;53.690;19.948;2022-10-15T18:53:46;99699.16;;;15.56;79.86
41467;BME280;27205;53.690;19.948;2022-10-15T18:58:50;99704.41;;;15.56;80.20
41467;BME280;27205;53.690;19.948;2022-10-15T19:04:06;99714.05;;;15.56;80.43
41467;BME280;27205;53.690;19.948;2022-10-15T19:09:17;99723.64;;;15.56;80.60
41467;BME280;27205;53.690;19.948;2022-10-15T19:14:22;99724.44;;;15.57;80.78
41467;BME280;27205;53.690;19.948;2022-10-15T19:19:27;99722.67;;;15.56;81.02
41467;BME280;27205;53.690;19.948;2022-10-15T19:24:31;99720.86;;;15.58;81.04
41467;BME280;27205;53.690;19.948;2022-10-15T19:29:36;99721.11;;;15.59;81.23
41467;BME280;27205;53.690;19.948;2022-10-15T19:34:40;99718.57;;;15.63;80.89
41467;BME280;27205;53.690;19.948;2022-10-15T19:39:43;99718.27;;;15.65;81.09
41467;BME280;27205;53.690;19.948;2022-10-15T19:44:50;99722.91;;;15.63;81.12
41467;BME280;27205;53.690;19.948;2022-10-15T19:49:53;99722.91;;;15.62;81.20
41467;BME280;27205;53.690;19.948;2022-10-15T19:54:57;99727.51;;;15.62;81.31
41467;BME280;27205;53.690;19.948;2022-10-15T20:00:03;99728.11;;;15.60;81.54
41467;BME280;27205;53.690;19.948;2022-10-15T20:05:09;99730.14;;;15.57;81.15
41467;BME280;27205;53.690;19.948;2022-10-15T20:10:12;99729.39;;;15.57;81.59
41467;BME280;27205;53.690;19.948;2022-10-15T20:15:17;99733.59;;;15.57;81.48
41467;BME280;27205;53.690;19.948;2022-10-15T20:20:21;99738.62;;;15.55;81.54
41467;BME280;27205;53.690;19.948;2022-10-15T20:25:24;99743.57;;;15.54;81.76
41467;BME280;27205;53.690;19.948;2022-10-15T20:30:28;99747.41;;;15.52;81.60
41467;BME280;27205;53.690;19.948;2022-10-15T20:35:34;99747.77;;;15.52;81.97
41467;BME280;27205;53.690;19.948;2022-10-15T20:40:38;99750.18;;;15.52;81.82
41467;BME280;27205;53.690;19.948;2022-10-15T20:45:43;99753.72;;;15.53;81.88
41467;BME280;27205;53.690;19.948;2022-10-15T20:50:48;99752.25;;;15.54;81.85
41467;BME280;27205;53.690;19.948;2022-10-15T20:55:53;99758.45;;;15.53;81.93
41467;BME280;27205;53.690;19.948;2022-10-15T21:00:57;99757.30;;;15.51;82.01
41467;BME280;27205;53.690;19.948;2022-10-15T21:06:01;99759.89;;;15.48;82.32
41467;BME280;27205;53.690;19.948;2022-10-15T21:11:06;99759.42;;;15.45;82.27
41467;BME280;27205;53.690;19.948;2022-10-15T21:16:10;99756.21;;;15.44;82.37
41467;BME280;27205;53.690;19.948;2022-10-15T21:21:13;99755.27;;;15.39;82.51
41467;BME280;27205;53.690;19.948;2022-10-15T21:26:17;99755.30;;;15.40;82.44
41467;BME280;27205;53.690;19.948;2022-10-15T21:31:21;99758.95;;;15.39;82.39
41467;BME280;27205;53.690;19.948;2022-10-15T21:36:26;99759.86;;;15.36;82.45
41467;BME280;27205;53.690;19.948;2022-10-15T21:41:32;99765.36;;;15.34;82.51
41467;BME280;27205;53.690;19.948;2022-10-15T21:46:38;99762.17;;;15.35;82.58
41467;BME280;27205;53.690;19.948;2022-10-15T21:51:42;99762.09;;;15.34;82.63
41467;BME280;27205;53.690;19.948;2022-10-15T21:56:45;99766.41;;;15.33;82.83
41467;BME280;27205;53.690;19.948;2022-10-15T22:01:48;99767.18;;;15.32;82.80
41467;BME280;27205;53.690;19.948;2022-10-15T22:06:52;99776.20;;;15.30;82.91
41467;BME280;27205;53.690;19.948;2022-10-15T22:11:55;99773.79;;;15.30;82.97
41467;BME280;27205;53.690;19.948;2022-10-15T22:16:58;99775.09;;;15.27;83.03
41467;BME280;27205;53.690;19.948;2022-10-15T22:22:01;99771.98;;;15.27;83.21
41467;BME280;27205;53.690;19.948;2022-10-15T22:27:04;99776.96;;;15.27;83.07
41467;BME280;27205;53.690;19.948;2022-10-15T22:32:08;99775.85;;;15.27;83.23
41467;BME280;27205;53.690;19.948;2022-10-15T22:37:11;99778.90;;;15.25;83.47
41467;BME280;27205;53.690;19.948;2022-10-15T22:42:14;99776.85;;;15.25;83.40
41467;BME280;27205;53.690;19.948;2022-10-15T22:47:18;99779.26;;;15.23;83.50
41467;BME280;27205;53.690;19.948;2022-10-15T22:52:21;99780.41;;;15.20;83.78
41467;BME280;27205;53.690;19.948;2022-10-15T22:57:25;99791.66;;;15.19;83.97
41467;BME280;27205;53.690;19.948;2022-10-15T23:02:28;99795.90;;;15.17;84.04
41467;BME280;27205;53.690;19.948;2022-10-15T23:07:31;99805.84;;;15.15;84.21
41467;BME280;27205;53.690;19.948;2022-10-15T23:12:36;99807.86;;;15.11;84.32
41467;BME280;27205;53.690;19.948;2022-10-15T23:17:39;99806.38;;;15.07;85.02
41467;BME280;27205;53.690;19.948;2022-10-15T23:22:42;99818.34;;;15.02;85.17
41467;BME280;27205;53.690;19.948;2022-10-15T23:27:46;99818.98;;;14.99;85.66
41467;BME280;27205;53.690;19.948;2022-10-15T23:32:49;99815.50;;;14.97;85.71
41467;BME280;27205;53.690;19.948;2022-10-15T23:37:52;99821.77;;;14.96;85.87
41467;BME280;27205;53.690;19.948;2022-10-15T23:42:56;99820.54;;;14.93;86.10
41467;BME280;27205;53.690;19.948;2022-10-15T23:47:59;99820.95;;;14.85;86.40
41467;BME280;27205;53.690;19.948;2022-10-15T23:53:02;99822.59;;;14.82;86.85
41467;BME280;27205;53.690;19.948;2022-10-15T23:58:06;99828.08;;;14.79;87.24
